College Station, Arkansas
Current Conditions -  °F | °C
As of 8:53 AM on Sunday 23 Nov 2014 (Local Time) from KLIT Reporting Station
Light Rain Light Rain  
Wind Chill: 59°   Ceiling: 600
Heat Index: 59°   Visibility: 2mi
Dew Point: 56°   Wind: 12mph
Humidity: 90%   Direction: 150°SSE
Pressure: 29.6"   Gusts: NA
Location:  34.71°N, 92.22°W
Report Text: KLIT 231453Z 15010KT 2SM -RA BR OVC006 15/13 A2960 RMK AO2 SFC VIS 2 1/2 SLP023 P0008 60014 T01500133 58027
Loading
Personal Weather Stations






























Interactive Weather Map New forecast layout! Learn more

10-Day Weather Forecast

Advertisements
Track Severe Weather on mobile